createdAt,value
2019-04-03T00:00:48.557Z,10.66
2019-04-03T00:01:48.546Z,10.59
2019-04-03T00:02:48.516Z,10.60
2019-04-03T00:03:48.527Z,10.53
2019-04-03T00:04:48.517Z,10.52
2019-04-03T00:05:48.481Z,10.44
2019-04-03T00:06:49.249Z,10.43
2019-04-03T00:07:48.494Z,10.43
2019-04-03T00:08:48.455Z,10.53
2019-04-03T00:09:48.457Z,10.55
2019-04-03T00:10:48.427Z,10.47
2019-04-03T00:11:48.444Z,10.43
2019-04-03T00:12:48.404Z,10.40
2019-04-03T00:13:48.425Z,10.44
2019-04-03T00:14:48.384Z,10.40
2019-04-03T00:15:48.420Z,10.36
2019-04-03T00:16:48.362Z,10.36
2019-04-03T00:17:48.356Z,10.30
2019-04-03T00:18:48.364Z,10.30
2019-04-03T00:19:48.353Z,10.33
2019-04-03T00:20:49.146Z,10.33
2019-04-03T00:21:48.779Z,10.34
2019-04-03T00:22:49.931Z,10.32
2019-04-03T00:23:48.316Z,10.24
2019-04-03T00:24:48.287Z,10.12
2019-04-03T00:25:48.269Z,10.15
2019-04-03T00:26:48.364Z,10.17
2019-04-03T00:27:48.246Z,10.07
2019-04-03T00:28:48.262Z,10.12
2019-04-03T00:29:48.220Z,10.06
2019-04-03T00:30:48.210Z,10.01
2019-04-03T00:31:48.225Z,9.99
2019-04-03T00:32:48.208Z,9.93
2019-04-03T00:33:48.205Z,9.94
2019-04-03T00:34:48.201Z,9.85
2019-04-03T00:35:48.176Z,9.82
2019-04-03T00:36:48.145Z,9.71
2019-04-03T00:37:48.788Z,9.70
2019-04-03T00:38:48.135Z,9.73
2019-04-03T00:39:48.126Z,9.73
2019-04-03T00:40:48.170Z,9.61
2019-04-03T00:41:48.097Z,9.64
2019-04-03T00:42:48.109Z,9.61
2019-04-03T00:43:48.099Z,9.60
2019-04-03T00:44:48.091Z,9.75
2019-04-03T00:45:48.054Z,9.66
2019-04-03T00:46:48.287Z,9.70
2019-04-03T00:47:48.038Z,9.68
2019-04-03T00:48:48.021Z,9.71
2019-04-03T00:49:48.132Z,9.61
2019-04-03T00:50:48.035Z,9.63
2019-04-03T00:51:48.084Z,9.61
2019-04-03T00:52:47.977Z,9.61
2019-04-03T00:53:48.012Z,9.57
2019-04-03T00:54:47.955Z,9.50
2019-04-03T00:55:47.948Z,9.50
2019-04-03T00:56:47.941Z,9.52
2019-04-03T00:57:47.960Z,9.31
2019-04-03T00:58:47.920Z,9.39
2019-04-03T00:59:47.903Z,9.32
2019-04-03T01:00:47.924Z,9.31
2019-04-03T01:01:47.894Z,9.27
2019-04-03T01:02:47.871Z,9.30
2019-04-03T01:03:47.860Z,9.31
2019-04-03T01:04:47.876Z,9.38
2019-04-03T01:05:47.847Z,9.32
2019-04-03T01:06:47.826Z,9.31
2019-04-03T01:07:47.813Z,9.27
2019-04-03T01:08:47.806Z,9.27
2019-04-03T01:09:47.817Z,9.34
2019-04-03T01:10:47.783Z,9.31
2019-04-03T01:11:47.777Z,9.32
2019-04-03T01:12:47.772Z,9.32
2019-04-03T01:13:47.897Z,9.31
2019-04-03T01:14:47.774Z,9.39
2019-04-03T01:15:47.731Z,9.39
2019-04-03T01:16:47.747Z,9.45
2019-04-03T01:17:47.730Z,9.31
2019-04-03T01:18:47.702Z,9.38
2019-04-03T01:19:47.689Z,9.50
2019-04-03T01:20:47.695Z,9.45
2019-04-03T01:21:47.691Z,9.49
2019-04-03T01:22:47.655Z,9.45
2019-04-03T01:23:47.682Z,9.40
2019-04-03T01:24:47.628Z,9.45
2019-04-03T01:25:47.653Z,9.48
2019-04-03T01:26:47.613Z,9.52
2019-04-03T01:27:47.602Z,9.53
2019-04-03T01:28:47.590Z,9.34
2019-04-03T01:29:47.576Z,9.48
2019-04-03T01:30:47.810Z,9.45
2019-04-03T01:31:47.560Z,9.45
2019-04-03T01:32:47.743Z,9.35
2019-04-03T01:33:47.730Z,9.46
2019-04-03T01:34:47.978Z,9.38
2019-04-03T01:35:47.945Z,9.39
2019-04-03T01:36:48.158Z,9.34
2019-04-03T01:37:47.894Z,9.32
2019-04-03T01:38:47.981Z,9.23
2019-04-03T01:39:49.007Z,9.30
2019-04-03T01:40:47.458Z,9.35
2019-04-03T01:41:47.443Z,9.38
2019-04-03T01:42:47.437Z,9.34
2019-04-03T01:43:47.439Z,9.34
2019-04-03T01:44:47.442Z,9.31
2019-04-03T01:45:47.418Z,9.32
2019-04-03T01:46:47.397Z,9.27
2019-04-03T01:47:47.382Z,9.23
2019-04-03T01:48:47.375Z,9.30
2019-04-03T01:49:47.388Z,9.21
2019-04-03T01:50:47.359Z,9.20
2019-04-03T01:51:47.344Z,9.20
2019-04-03T01:52:47.329Z,9.10
2019-04-03T01:53:47.320Z,9.15
2019-04-03T01:54:47.309Z,9.18
2019-04-03T01:55:47.329Z,9.18
2019-04-03T01:56:47.286Z,9.13
2019-04-03T01:57:47.274Z,9.15
2019-04-03T01:58:47.262Z,9.20
2019-04-03T01:59:47.255Z,9.21
2019-04-03T02:00:47.275Z,9.15
2019-04-03T02:01:47.234Z,9.28
2019-04-03T02:02:47.239Z,9.25
2019-04-03T02:03:47.256Z,9.34
2019-04-03T02:04:47.214Z,9.23
2019-04-03T02:05:47.201Z,9.34
2019-04-03T02:06:47.193Z,9.32
2019-04-03T02:07:47.323Z,9.35
2019-04-03T02:08:47.211Z,9.34
2019-04-03T02:09:47.300Z,9.35
2019-04-03T02:10:48.924Z,9.39
2019-04-03T02:11:49.227Z,9.40
2019-04-03T02:12:50.431Z,9.46
2019-04-03T02:13:47.157Z,9.50
2019-04-03T02:14:47.148Z,9.53
2019-04-03T02:15:47.210Z,9.58
2019-04-03T02:16:47.187Z,9.58
2019-04-03T02:17:47.099Z,9.66
2019-04-03T02:18:47.108Z,9.78
2019-04-03T02:19:47.089Z,9.78
2019-04-03T02:20:47.081Z,9.71
2019-04-03T02:21:47.143Z,9.61
2019-04-03T02:22:47.066Z,9.67
2019-04-03T02:23:47.044Z,9.63
2019-04-03T02:24:47.031Z,9.57
2019-04-03T02:25:47.034Z,9.64
2019-04-03T02:26:47.007Z,9.67
2019-04-03T02:27:47.075Z,9.68
2019-04-03T02:28:46.979Z,9.71
2019-04-03T02:29:46.986Z,9.61
2019-04-03T02:30:47.395Z,9.63
2019-04-03T02:31:46.941Z,9.61
2019-04-03T02:32:47.084Z,9.63
2019-04-03T02:33:47.225Z,9.58
2019-04-03T02:34:46.929Z,9.60
2019-04-03T02:35:46.920Z,9.58
2019-04-03T02:36:46.973Z,9.58
2019-04-03T02:37:49.742Z,9.61
2019-04-03T02:38:46.893Z,9.56
2019-04-03T02:39:46.898Z,9.63
2019-04-03T02:40:46.849Z,9.61
2019-04-03T02:41:46.919Z,9.56
2019-04-03T02:42:46.836Z,9.53
2019-04-03T02:43:47.664Z,9.57
2019-04-03T02:44:48.427Z,9.53
2019-04-03T02:45:47.011Z,9.63
2019-04-03T02:46:46.791Z,9.60
2019-04-03T02:47:46.803Z,9.58
2019-04-03T02:48:46.774Z,9.68
2019-04-03T02:49:47.009Z,9.63
2019-04-03T02:50:47.987Z,9.66
2019-04-03T02:51:46.752Z,9.67
2019-04-03T02:52:46.740Z,9.67
2019-04-03T02:53:46.726Z,9.66
2019-04-03T02:54:47.030Z,9.60
2019-04-03T02:55:46.688Z,9.60
2019-04-03T02:56:46.691Z,9.71
2019-04-03T02:57:49.050Z,9.66
2019-04-03T02:58:47.280Z,9.76
2019-04-03T02:59:46.670Z,9.71
2019-04-03T03:00:46.850Z,9.66
2019-04-03T03:01:46.647Z,9.78
2019-04-03T03:02:46.620Z,9.89
2019-04-03T03:03:49.553Z,9.94
2019-04-03T03:04:46.607Z,10.03
2019-04-03T03:05:46.655Z,10.01
2019-04-03T03:06:46.570Z,10.03
2019-04-03T03:07:46.561Z,10.09
2019-04-03T03:08:46.559Z,10.07
2019-04-03T03:09:47.586Z,10.01
2019-04-03T03:10:46.813Z,10.03
2019-04-03T03:11:46.525Z,9.97
2019-04-03T03:12:46.524Z,9.99
2019-04-03T03:13:46.491Z,9.91
2019-04-03T03:14:46.513Z,10.06
2019-04-03T03:15:46.479Z,10.00
2019-04-03T03:16:49.324Z,9.94
2019-04-03T03:17:46.464Z,9.88
2019-04-03T03:18:46.698Z,9.83
2019-04-03T03:19:46.429Z,9.83
2019-04-03T03:20:46.428Z,9.82
2019-04-03T03:21:46.410Z,9.70
2019-04-03T03:22:49.802Z,9.71
2019-04-03T03:23:46.410Z,9.58
2019-04-03T03:24:46.388Z,9.58
2019-04-03T03:25:46.450Z,9.67
2019-04-03T03:26:46.370Z,9.71
2019-04-03T03:27:46.356Z,9.61
2019-04-03T03:28:47.620Z,9.63
2019-04-03T03:29:46.329Z,9.56
2019-04-03T03:30:55.704Z,9.48
2019-04-03T03:32:06.549Z,9.46
2019-04-03T03:32:47.306Z,9.35
2019-04-03T03:33:46.454Z,9.38
2019-04-03T03:34:54.848Z,9.42
2019-04-03T03:35:49.202Z,9.31
2019-04-03T03:36:47.060Z,9.34
2019-04-03T03:37:46.258Z,9.21
2019-04-03T03:38:46.441Z,9.25
2019-04-03T03:39:46.232Z,9.24
2019-04-03T03:40:48.402Z,9.31
2019-04-03T03:41:46.197Z,9.10
2019-04-03T03:42:46.242Z,9.16
2019-04-03T03:43:46.279Z,9.06
2019-04-03T03:44:46.927Z,9.01
2019-04-03T03:45:46.244Z,8.93
2019-04-03T03:46:46.201Z,8.86
2019-04-03T03:47:46.126Z,8.86
2019-04-03T03:48:46.132Z,8.88
2019-04-03T03:49:48.669Z,8.84
2019-04-03T03:50:46.194Z,8.81
2019-04-03T03:51:46.084Z,8.72
2019-04-03T03:52:46.090Z,8.65
2019-04-03T03:53:46.481Z,8.58
2019-04-03T03:54:49.578Z,8.54
2019-04-03T03:55:46.147Z,8.48
2019-04-03T03:56:46.045Z,8.42
2019-04-03T03:57:46.234Z,8.30
2019-04-03T03:58:46.635Z,8.35
2019-04-03T03:59:49.417Z,8.29
2019-04-03T04:00:51.682Z,8.26
2019-04-03T04:01:46.962Z,8.32
2019-04-03T04:02:45.955Z,8.26
2019-04-03T04:03:45.960Z,8.21
2019-04-03T04:04:48.167Z,8.26
2019-04-03T04:05:46.309Z,8.20
2019-04-03T04:06:45.907Z,8.18
2019-04-03T04:07:45.900Z,8.08
2019-04-03T04:08:45.962Z,8.00
2019-04-03T04:09:49.500Z,8.10
2019-04-03T04:10:46.945Z,8.12
2019-04-03T04:11:45.841Z,8.02
2019-04-03T04:12:46.260Z,7.97
2019-04-03T04:13:48.444Z,8.03
2019-04-03T04:14:45.809Z,8.02
2019-04-03T04:15:46.236Z,8.03
2019-04-03T04:16:45.790Z,8.02
2019-04-03T04:17:48.960Z,8.03
2019-04-03T04:18:45.773Z,7.93
2019-04-03T04:19:45.835Z,7.89
2019-04-03T04:20:45.858Z,7.92
2019-04-03T04:21:45.925Z,7.78
2019-04-03T04:22:49.048Z,7.78
2019-04-03T04:23:45.721Z,7.85
2019-04-03T04:24:45.699Z,7.94
2019-04-03T04:25:45.719Z,7.81
2019-04-03T04:26:45.685Z,7.89
2019-04-03T04:27:45.674Z,7.84
2019-04-03T04:28:45.663Z,7.75
2019-04-03T04:29:45.724Z,7.69
2019-04-03T04:30:45.639Z,7.71
2019-04-03T04:31:45.663Z,7.67
2019-04-03T04:32:46.834Z,7.59
2019-04-03T04:33:47.510Z,7.56
2019-04-03T04:34:45.591Z,7.53
2019-04-03T04:35:45.581Z,7.50
2019-04-03T04:36:45.724Z,7.53
2019-04-03T04:37:45.570Z,7.42
2019-04-03T04:38:45.551Z,7.49
2019-04-03T04:39:45.749Z,7.40
2019-04-03T04:40:45.532Z,7.24
2019-04-03T04:41:45.529Z,7.22
2019-04-03T04:42:45.678Z,7.20
2019-04-03T04:43:45.524Z,7.22
2019-04-03T04:44:45.540Z,7.22
2019-04-03T04:45:45.503Z,7.19
2019-04-03T04:46:45.479Z,7.05
2019-04-03T04:47:46.442Z,7.13
2019-04-03T04:48:45.449Z,7.02
2019-04-03T04:49:45.439Z,6.98
2019-04-03T04:50:45.485Z,7.01
2019-04-03T04:51:45.459Z,6.99
2019-04-03T04:52:45.565Z,6.95
2019-04-03T04:53:45.395Z,7.01
2019-04-03T04:54:45.389Z,6.94
2019-04-03T04:55:45.388Z,6.90
2019-04-03T04:56:45.397Z,6.94
2019-04-03T04:57:45.354Z,6.84
2019-04-03T04:58:45.341Z,6.86
2019-04-03T04:59:45.575Z,6.87
2019-04-03T05:00:47.489Z,6.72
2019-04-03T05:01:45.384Z,6.76
2019-04-03T05:02:45.298Z,6.66
2019-04-03T05:03:45.300Z,6.81
2019-04-03T05:04:45.284Z,6.66
2019-04-03T05:05:45.271Z,6.79
2019-04-03T05:06:45.290Z,6.73
2019-04-03T05:07:45.251Z,6.72
2019-04-03T05:08:45.256Z,6.73
2019-04-03T05:09:45.230Z,6.80
2019-04-03T05:10:45.232Z,6.69
2019-04-03T05:11:45.232Z,6.68
2019-04-03T05:12:45.683Z,6.66
2019-04-03T05:13:46.872Z,6.66
2019-04-03T05:14:45.177Z,6.58
2019-04-03T05:15:45.165Z,6.68
2019-04-03T05:16:45.191Z,6.62
2019-04-03T05:17:45.143Z,6.63
2019-04-03T05:18:45.141Z,6.62
2019-04-03T05:19:45.129Z,6.58
2019-04-03T05:20:45.403Z,6.71
2019-04-03T05:21:45.379Z,6.76
2019-04-03T05:22:45.098Z,6.68
2019-04-03T05:23:45.082Z,6.69
2019-04-03T05:24:45.155Z,6.68
2019-04-03T05:25:45.062Z,6.77
2019-04-03T05:26:45.087Z,6.72
2019-04-03T05:27:45.043Z,6.91
2019-04-03T05:28:55.581Z,6.79
2019-04-03T05:29:46.141Z,6.79
2019-04-03T05:30:45.074Z,6.84
2019-04-03T05:31:45.049Z,6.79
2019-04-03T05:32:44.988Z,6.86
2019-04-03T05:33:45.081Z,6.87
2019-04-03T05:34:44.974Z,6.87
2019-04-03T05:35:46.292Z,6.81
2019-04-03T05:36:45.041Z,6.90
2019-04-03T05:37:44.944Z,6.90
2019-04-03T05:38:45.127Z,6.94
2019-04-03T05:39:44.923Z,6.99
2019-04-03T05:40:44.902Z,6.84
2019-04-03T05:41:44.929Z,6.83
2019-04-03T05:42:44.883Z,6.84
2019-04-03T05:43:44.879Z,6.72
2019-04-03T05:44:44.879Z,6.68
2019-04-03T05:45:44.853Z,6.68
2019-04-03T05:46:44.897Z,6.61
2019-04-03T05:47:44.835Z,6.62
2019-04-03T05:48:47.524Z,6.51
2019-04-03T05:49:47.014Z,6.50
2019-04-03T05:50:44.806Z,6.44
2019-04-03T05:51:44.819Z,6.44
2019-04-03T05:52:44.784Z,6.47
2019-04-03T05:53:44.768Z,6.50
2019-04-03T05:54:45.040Z,6.62
2019-04-03T05:55:45.044Z,6.47
2019-04-03T05:56:44.758Z,6.66
2019-04-03T05:57:45.775Z,6.63
2019-04-03T05:58:55.453Z,6.76
2019-04-03T05:59:57.919Z,6.73
2019-04-03T06:00:45.826Z,6.83
2019-04-03T06:01:46.763Z,6.84
2019-04-03T06:02:44.679Z,6.91
2019-04-03T06:03:45.759Z,6.97
2019-04-03T06:04:44.761Z,7.02
2019-04-03T06:05:44.723Z,7.02
2019-04-03T06:06:46.889Z,7.17
2019-04-03T06:07:44.662Z,7.12
2019-04-03T06:08:44.614Z,7.35
2019-04-03T06:09:44.611Z,7.63
2019-04-03T06:10:44.595Z,7.90
2019-04-03T06:11:44.931Z,8.28
2019-04-03T06:12:45.379Z,8.42
2019-04-03T06:13:47.484Z,8.62
2019-04-03T06:14:44.549Z,8.75
2019-04-03T06:15:44.540Z,8.93
2019-04-03T06:16:44.562Z,9.09
2019-04-03T06:17:44.769Z,9.48
2019-04-03T06:18:47.360Z,9.70
2019-04-03T06:19:44.549Z,10.07
2019-04-03T06:20:44.488Z,10.42
2019-04-03T06:21:46.166Z,10.62
2019-04-03T06:22:44.464Z,10.84
2019-04-03T06:23:44.458Z,11.07
2019-04-03T06:24:44.683Z,11.20
2019-04-03T06:25:44.433Z,11.35
2019-04-03T06:26:45.060Z,11.65
2019-04-03T06:27:46.253Z,11.94
2019-04-03T06:28:46.362Z,12.11
2019-04-03T06:29:44.556Z,12.26
2019-04-03T06:30:44.386Z,12.51
2019-04-03T06:31:44.447Z,12.82
2019-04-03T06:32:44.472Z,13.12
2019-04-03T06:33:44.412Z,13.27
2019-04-03T06:34:44.399Z,13.56
2019-04-03T06:35:45.231Z,13.89
2019-04-03T06:36:44.312Z,14.07
2019-04-03T06:37:44.335Z,14.34
2019-04-03T06:38:44.286Z,14.60
2019-04-03T06:39:44.547Z,14.84
2019-04-03T06:40:44.313Z,15.09
2019-04-03T06:41:44.531Z,15.28
2019-04-03T06:42:45.367Z,15.66
2019-04-03T06:43:44.245Z,15.89
2019-04-03T06:44:44.222Z,16.03
2019-04-03T06:45:44.454Z,16.18
2019-04-03T06:46:44.534Z,16.20
2019-04-03T06:47:44.405Z,16.18
2019-04-03T06:48:44.187Z,16.01
2019-04-03T06:49:44.185Z,15.85
2019-04-03T06:50:44.164Z,15.84
2019-04-03T06:51:44.691Z,15.81
2019-04-03T06:52:44.182Z,15.82
2019-04-03T06:53:44.128Z,15.63
2019-04-03T06:54:45.110Z,15.31
2019-04-03T06:55:44.340Z,15.33
2019-04-03T06:56:44.158Z,15.20
2019-04-03T06:57:44.117Z,15.28
2019-04-03T06:58:44.848Z,14.86
2019-04-03T06:59:44.064Z,14.64
2019-04-03T07:00:45.262Z,14.56
2019-04-03T07:01:44.043Z,14.39
2019-04-03T07:02:44.140Z,14.35
2019-04-03T07:03:44.027Z,14.17
2019-04-03T07:04:44.019Z,14.02
2019-04-03T07:05:44.004Z,13.80
2019-04-03T07:06:45.240Z,13.76
2019-04-03T07:07:44.009Z,13.76
2019-04-03T07:08:43.971Z,13.88
2019-04-03T07:09:43.965Z,13.81
2019-04-03T07:10:54.629Z,13.88
2019-04-03T07:11:44.945Z,13.80
2019-04-03T07:12:44.000Z,13.94
2019-04-03T07:13:43.914Z,13.88
2019-04-03T07:14:43.906Z,13.80
2019-04-03T07:15:43.891Z,13.54
2019-04-03T07:16:43.890Z,13.59
2019-04-03T07:17:43.918Z,13.94
2019-04-03T07:18:43.868Z,14.19
2019-04-03T07:19:43.850Z,14.27
2019-04-03T07:20:44.075Z,14.31
2019-04-03T07:21:43.831Z,14.54
2019-04-03T07:22:44.088Z,14.38
2019-04-03T07:23:43.811Z,14.29
2019-04-03T07:24:43.910Z,14.07
2019-04-03T07:25:43.792Z,14.13
2019-04-03T07:26:43.867Z,14.07
2019-04-03T07:27:43.920Z,14.17
2019-04-03T07:28:44.000Z,14.24
2019-04-03T07:29:44.006Z,14.28
2019-04-03T07:30:43.741Z,14.07
2019-04-03T07:31:43.950Z,14.24
2019-04-03T07:32:43.728Z,14.10
2019-04-03T07:33:43.714Z,14.01
2019-04-03T07:34:43.699Z,13.87
2019-04-03T07:35:43.688Z,13.76
2019-04-03T07:36:45.536Z,13.65
2019-04-03T07:37:43.783Z,13.52
2019-04-03T07:38:43.653Z,13.44
2019-04-03T07:39:43.936Z,13.27
2019-04-03T07:40:43.635Z,13.36
2019-04-03T07:41:43.652Z,13.41
2019-04-03T07:42:43.607Z,13.43
2019-04-03T07:43:43.654Z,13.61
2019-04-03T07:44:43.747Z,13.69
2019-04-03T07:45:43.984Z,13.87
2019-04-03T07:46:43.672Z,13.81
2019-04-03T07:47:43.623Z,13.91
2019-04-03T07:48:43.580Z,14.14
2019-04-03T07:49:43.536Z,14.49
2019-04-03T07:50:43.522Z,14.61
2019-04-03T07:51:44.429Z,14.86
2019-04-03T07:52:43.503Z,14.84
2019-04-03T07:53:43.497Z,14.75
2019-04-03T07:54:43.627Z,14.53
2019-04-03T07:55:44.331Z,14.56
2019-04-03T07:56:43.461Z,14.69
2019-04-03T07:57:43.491Z,14.88
2019-04-03T07:58:43.441Z,15.02
2019-04-03T07:59:43.452Z,15.02
2019-04-03T08:00:43.412Z,15.03
2019-04-03T08:01:43.545Z,15.19
2019-04-03T08:02:47.894Z,15.35
2019-04-03T08:03:44.383Z,15.63
2019-04-03T08:04:43.698Z,15.68
2019-04-03T08:05:43.371Z,15.85
2019-04-03T08:06:43.370Z,15.81
2019-04-03T08:07:43.341Z,15.31
2019-04-03T08:08:43.325Z,15.23
2019-04-03T08:09:43.313Z,15.19
2019-04-03T08:10:43.346Z,15.01
2019-04-03T08:11:43.330Z,15.20
2019-04-03T08:12:43.314Z,15.39
2019-04-03T08:13:43.275Z,15.70
2019-04-03T08:14:43.262Z,15.74
2019-04-03T08:15:44.500Z,15.51
2019-04-03T08:16:43.417Z,15.72
2019-04-03T08:17:43.408Z,15.97
2019-04-03T08:18:43.222Z,16.09
2019-04-03T08:19:45.008Z,16.52
2019-04-03T08:20:43.200Z,17.73
2019-04-03T08:21:43.279Z,18.28
2019-04-03T08:22:43.214Z,18.33
2019-04-03T08:23:43.169Z,18.55
2019-04-03T08:24:43.158Z,18.34
2019-04-03T08:25:47.147Z,18.34
2019-04-03T08:26:44.140Z,18.44
2019-04-03T08:27:43.149Z,18.82
2019-04-03T08:28:43.562Z,19.57
2019-04-03T08:29:43.411Z,20.28
2019-04-03T08:30:43.496Z,19.80
2019-04-03T08:31:46.075Z,18.94
2019-04-03T08:32:43.110Z,18.18
2019-04-03T08:33:43.090Z,17.44
2019-04-03T08:34:43.132Z,17.23
2019-04-03T08:35:43.167Z,16.89
2019-04-03T08:36:43.028Z,17.06
2019-04-03T08:37:43.512Z,16.96
2019-04-03T08:38:44.863Z,17.47
2019-04-03T08:39:43.033Z,18.10
2019-04-03T08:40:42.998Z,18.19
2019-04-03T08:41:43.163Z,17.88
2019-04-03T08:42:43.121Z,17.63
2019-04-03T08:43:42.958Z,17.85
2019-04-03T08:44:43.173Z,18.25
2019-04-03T08:45:42.967Z,18.28
2019-04-03T08:46:43.871Z,18.52
2019-04-03T08:47:46.139Z,18.72
2019-04-03T08:48:43.004Z,18.27
2019-04-03T08:49:43.034Z,18.24
2019-04-03T08:50:42.873Z,18.95
2019-04-03T08:51:42.870Z,19.57
2019-04-03T08:52:43.079Z,20.00
2019-04-03T08:53:42.848Z,20.10
2019-04-03T08:54:42.841Z,20.50
2019-04-03T08:55:45.356Z,20.10
2019-04-03T08:56:42.809Z,19.76
2019-04-03T08:57:45.355Z,18.97
2019-04-03T08:58:45.736Z,18.91
2019-04-03T08:59:42.859Z,19.13
2019-04-03T09:00:43.077Z,19.46
2019-04-03T09:01:42.762Z,19.66
2019-04-03T09:02:43.864Z,19.90
2019-04-03T09:03:43.927Z,20.54
2019-04-03T09:04:42.753Z,20.33
2019-04-03T09:05:42.720Z,20.33
2019-04-03T09:06:42.901Z,20.27
2019-04-03T09:07:42.733Z,19.91
2019-04-03T09:08:42.696Z,20.18
2019-04-03T09:09:42.875Z,20.31
2019-04-03T09:10:42.681Z,20.41
2019-04-03T09:11:42.674Z,19.83
2019-04-03T09:12:42.677Z,19.87
2019-04-03T09:13:42.639Z,20.18
2019-04-03T09:14:43.012Z,20.03
2019-04-03T09:15:42.932Z,19.86
2019-04-03T09:16:42.619Z,19.46
2019-04-03T09:17:42.627Z,19.61
2019-04-03T09:18:42.587Z,20.03
2019-04-03T09:19:42.812Z,20.42
2019-04-03T09:20:43.478Z,20.87
2019-04-03T09:21:42.552Z,21.30
2019-04-03T09:22:42.577Z,21.27
2019-04-03T09:23:42.530Z,21.48
2019-04-03T09:24:42.518Z,22.02
2019-04-03T09:25:42.874Z,22.25
2019-04-03T09:26:42.511Z,22.74
2019-04-03T09:27:42.557Z,23.46
2019-04-03T09:28:42.893Z,23.45
2019-04-03T09:29:42.974Z,23.83
2019-04-03T09:30:42.485Z,23.94
2019-04-03T09:31:42.464Z,23.12
2019-04-03T09:32:42.470Z,22.60
2019-04-03T09:33:42.746Z,22.64
2019-04-03T09:34:42.503Z,22.67
2019-04-03T09:35:43.313Z,22.93
2019-04-03T09:36:42.399Z,23.34
2019-04-03T09:37:45.183Z,23.60
2019-04-03T09:38:42.663Z,23.92
2019-04-03T09:39:44.439Z,24.13
2019-04-03T09:40:42.357Z,24.16
2019-04-03T09:41:42.343Z,24.37
2019-04-03T09:42:42.369Z,23.24
2019-04-03T09:43:42.336Z,23.04
2019-04-03T09:44:42.315Z,23.04
2019-04-03T09:45:42.613Z,23.61
2019-04-03T09:46:44.563Z,24.04
2019-04-03T09:47:42.331Z,24.41
2019-04-03T09:48:42.426Z,24.75
2019-04-03T09:49:43.933Z,25.16
2019-04-03T09:50:42.247Z,25.12
2019-04-03T09:51:42.803Z,25.72
2019-04-03T09:52:48.498Z,26.25
2019-04-03T09:53:43.317Z,26.67
2019-04-03T09:54:42.851Z,27.33
2019-04-03T09:55:42.324Z,27.10
2019-04-03T09:56:57.133Z,25.54
2019-04-03T09:57:43.339Z,24.22
2019-04-03T09:58:42.168Z,23.19
2019-04-03T09:59:42.165Z,23.23
2019-04-03T10:00:42.877Z,22.71
2019-04-03T10:01:42.140Z,22.69
2019-04-03T10:02:42.121Z,22.72
2019-04-03T10:03:42.432Z,23.64
2019-04-03T10:04:42.101Z,23.58
2019-04-03T10:05:42.117Z,23.45
2019-04-03T10:06:42.086Z,22.93
2019-04-03T10:07:42.091Z,22.52
2019-04-03T10:08:42.106Z,22.23
2019-04-03T10:09:43.998Z,22.13
2019-04-03T10:10:42.040Z,21.83
2019-04-03T10:11:42.262Z,21.51
2019-04-03T10:12:44.701Z,21.09
2019-04-03T10:13:43.052Z,20.62
2019-04-03T10:14:42.003Z,20.31
2019-04-03T10:15:42.014Z,20.00
2019-04-03T10:16:41.988Z,19.73
2019-04-03T10:17:42.126Z,19.61
2019-04-03T10:18:42.456Z,19.55
2019-04-03T10:19:44.962Z,19.90
2019-04-03T10:20:42.018Z,19.87
2019-04-03T10:21:41.928Z,19.91
2019-04-03T10:22:41.914Z,19.87
2019-04-03T10:23:42.204Z,20.21
2019-04-03T10:24:41.898Z,20.58
2019-04-03T10:25:41.885Z,21.17
2019-04-03T10:26:41.879Z,20.96
2019-04-03T10:27:43.561Z,20.15
2019-04-03T10:28:43.026Z,19.70
2019-04-03T10:29:41.962Z,19.76
2019-04-03T10:30:41.889Z,19.70
2019-04-03T10:31:41.821Z,19.73
2019-04-03T10:32:41.807Z,20.21
2019-04-03T10:33:41.861Z,21.04
2019-04-03T10:34:41.790Z,21.27
2019-04-03T10:35:41.780Z,22.06
2019-04-03T10:36:42.959Z,23.15
2019-04-03T10:37:41.793Z,24.22
2019-04-03T10:38:42.796Z,24.76
2019-04-03T10:39:44.230Z,25.17
2019-04-03T10:40:41.917Z,25.20
2019-04-03T10:41:41.722Z,24.97
2019-04-03T10:42:41.715Z,25.07
2019-04-03T10:43:42.075Z,25.12
2019-04-03T10:44:41.681Z,25.10
2019-04-03T10:45:41.696Z,25.35
2019-04-03T10:46:41.665Z,25.43
2019-04-03T10:47:44.064Z,25.38
2019-04-03T10:48:41.675Z,25.31
2019-04-03T10:49:41.639Z,25.38
2019-04-03T10:50:41.623Z,25.16
2019-04-03T10:51:42.077Z,24.95
2019-04-03T10:52:44.094Z,24.88
2019-04-03T10:53:41.618Z,24.67
2019-04-03T10:54:41.586Z,24.90
2019-04-03T10:55:41.575Z,25.10
2019-04-03T10:56:41.556Z,25.54
2019-04-03T10:57:41.548Z,25.80
2019-04-03T10:58:43.190Z,25.57
2019-04-03T10:59:41.613Z,25.12
2019-04-03T11:00:41.642Z,25.69
2019-04-03T11:01:41.509Z,25.87
2019-04-03T11:02:41.495Z,24.41
2019-04-03T11:03:41.818Z,23.76
2019-04-03T11:04:41.473Z,23.40
2019-04-03T11:05:41.598Z,23.09
2019-04-03T11:06:41.457Z,22.57
2019-04-03T11:07:41.469Z,22.53
2019-04-03T11:08:41.475Z,22.46
2019-04-03T11:09:41.425Z,22.99
2019-04-03T11:10:41.411Z,24.56
2019-04-03T11:11:43.462Z,25.19
2019-04-03T11:12:41.398Z,24.94
2019-04-03T11:13:41.463Z,24.87
2019-04-03T11:14:41.543Z,25.12
2019-04-03T11:15:44.113Z,26.31
2019-04-03T11:16:41.710Z,27.04
2019-04-03T11:17:41.991Z,26.99
2019-04-03T11:18:41.449Z,26.89
2019-04-03T11:19:44.089Z,25.39
2019-04-03T11:20:41.513Z,23.95
2019-04-03T11:21:43.225Z,22.84
2019-04-03T11:22:42.613Z,22.43
2019-04-03T11:23:44.879Z,23.11
2019-04-03T11:24:42.519Z,24.23
2019-04-03T11:25:42.183Z,24.97
2019-04-03T11:26:41.272Z,25.31
2019-04-03T11:27:44.100Z,26.04
2019-04-03T11:28:41.650Z,25.90
2019-04-03T11:29:42.655Z,25.52
2019-04-03T11:30:41.210Z,25.87
2019-04-03T11:31:42.667Z,26.39
2019-04-03T11:32:42.100Z,26.83
2019-04-03T11:33:41.190Z,26.69
2019-04-03T11:34:41.216Z,26.59
2019-04-03T11:35:41.198Z,25.84
2019-04-03T11:36:41.141Z,25.31
2019-04-03T11:37:41.136Z,25.54
2019-04-03T11:38:41.346Z,25.84
2019-04-03T11:39:41.161Z,25.84
2019-04-03T11:40:41.108Z,26.11
2019-04-03T11:41:41.342Z,26.55
2019-04-03T11:42:41.147Z,27.26
2019-04-03T11:43:41.122Z,27.39
2019-04-03T11:44:41.113Z,26.35
2019-04-03T11:45:41.053Z,26.79
2019-04-03T11:46:41.075Z,26.72
2019-04-03T11:47:41.341Z,26.31
2019-04-03T11:48:43.341Z,25.87
2019-04-03T11:49:41.208Z,25.34
2019-04-03T11:50:41.038Z,25.38
2019-04-03T11:51:41.005Z,26.17
2019-04-03T11:52:41.050Z,27.21
2019-04-03T11:53:41.221Z,27.79
2019-04-03T11:54:41.002Z,27.99
2019-04-03T11:55:41.949Z,28.21
2019-04-03T11:56:41.304Z,28.26
2019-04-03T11:57:40.930Z,28.33
2019-04-03T11:58:40.980Z,28.38
2019-04-03T11:59:41.387Z,27.94
2019-04-03T12:00:40.957Z,27.91
2019-04-03T12:01:40.998Z,28.54
2019-04-03T12:02:43.711Z,29.26
2019-04-03T12:03:42.294Z,29.23
2019-04-03T12:04:43.166Z,28.97
2019-04-03T12:05:40.859Z,29.60
2019-04-03T12:06:41.139Z,30.15
2019-04-03T12:07:41.215Z,30.26
2019-04-03T12:08:43.342Z,30.33
2019-04-03T12:09:41.923Z,30.90
2019-04-03T12:10:40.805Z,31.20
2019-04-03T12:11:40.797Z,31.12
2019-04-03T12:12:42.040Z,31.40
2019-04-03T12:13:40.834Z,31.48
2019-04-03T12:14:40.788Z,31.30
2019-04-03T12:15:41.196Z,31.55
2019-04-03T12:16:40.752Z,31.57
2019-04-03T12:17:40.996Z,31.88
2019-04-03T12:18:40.732Z,32.32
2019-04-03T12:19:40.749Z,32.61
2019-04-03T12:20:43.754Z,32.85
2019-04-03T12:21:40.701Z,33.04
2019-04-03T12:22:40.765Z,32.49
2019-04-03T12:23:40.694Z,32.11
2019-04-03T12:24:40.694Z,31.88
2019-04-03T12:25:40.703Z,31.49
2019-04-03T12:26:42.480Z,30.75
2019-04-03T12:27:40.645Z,30.21
2019-04-03T12:28:40.627Z,29.63
2019-04-03T12:29:40.694Z,29.90
2019-04-03T12:30:40.609Z,29.92
2019-04-03T12:31:40.603Z,29.35
2019-04-03T12:32:45.313Z,29.31
2019-04-03T12:33:52.754Z,28.53
2019-04-03T12:34:41.684Z,28.26
2019-04-03T12:35:42.318Z,28.90
2019-04-03T12:36:40.546Z,28.88
2019-04-03T12:37:40.550Z,28.63
2019-04-03T12:38:40.873Z,28.36
2019-04-03T12:39:40.872Z,28.16
2019-04-03T12:40:40.548Z,28.75
2019-04-03T12:41:42.869Z,29.38
2019-04-03T12:42:40.504Z,29.00
2019-04-03T12:43:40.821Z,28.91
2019-04-03T12:44:40.484Z,28.16
2019-04-03T12:45:40.507Z,28.35
2019-04-03T12:46:41.312Z,28.81
2019-04-03T12:47:42.843Z,29.01
2019-04-03T12:48:40.442Z,29.20
2019-04-03T12:49:40.428Z,28.93
2019-04-03T12:50:40.414Z,28.66
2019-04-03T12:51:40.409Z,28.62
2019-04-03T12:52:43.473Z,28.54
2019-04-03T12:53:40.410Z,28.11
2019-04-03T12:54:40.380Z,27.57
2019-04-03T12:55:42.527Z,26.98
2019-04-03T12:56:40.375Z,27.29
2019-04-03T12:57:40.415Z,28.17
2019-04-03T12:58:40.353Z,28.93
2019-04-03T12:59:40.762Z,29.74
2019-04-03T13:00:40.522Z,29.93
2019-04-03T13:01:40.358Z,30.49
2019-04-03T13:02:40.300Z,30.90
2019-04-03T13:03:40.703Z,30.98